sensor_id;sensor_type;location;lat;lon;timestamp;pressure;altitude;pressure_sealevel;temperature;humidity
65760;BME280;52496;51.082;5.066;2023-03-20T00:00:09;101961.81;;;7.00;100.00
65760;BME280;52496;51.082;5.066;2023-03-20T00:02:45;101958.28;;;6.89;100.00
65760;BME280;52496;51.082;5.066;2023-03-20T00:05:22;101958.34;;;6.78;100.00
65760;BME280;52496;51.082;5.066;2023-03-20T00:07:53;101957.22;;;6.71;100.00
65760;BME280;52496;51.082;5.066;2023-03-20T00:10:30;101956.06;;;6.64;100.00
65760;BME280;52496;51.082;5.066;2023-03-20T00:13:04;101958.53;;;6.56;100.00
65760;BME280;52496;51.082;5.066;2023-03-20T00:15:37;101951.34;;;6.47;100.00
65760;BME280;52496;51.082;5.066;2023-03-20T00:18:13;101958.16;;;6.39;100.00
65760;BME280;52496;51.082;5.066;2023-03-20T00:20:49;101940.06;;;6.33;100.00
65760;BME280;52496;51.082;5.066;2023-03-20T00:23:20;101939.72;;;6.27;100.00
65760;BME280;52496;51.082;5.066;2023-03-20T00:25:50;101941.81;;;6.23;100.00
65760;BME280;52496;51.082;5.066;2023-03-20T00:28:31;101928.34;;;6.15;100.00
65760;BME280;52496;51.082;5.066;2023-03-20T00:31:33;101924.38;;;6.09;100.00
65760;BME280;52496;51.082;5.066;2023-03-20T00:34:10;101928.25;;;6.05;100.00
65760;BME280;52496;51.082;5.066;2023-03-20T00:36:42;101918.13;;;5.99;100.00
65760;BME280;52496;51.082;5.066;2023-03-20T00:39:12;101918.53;;;5.94;100.00
65760;BME280;52496;51.082;5.066;2023-03-20T00:47:21;101927.59;;;5.81;100.00
65760;BME280;52496;51.082;5.066;2023-03-20T00:49:53;101928.59;;;5.80;100.00
65760;BME280;52496;51.082;5.066;2023-03-20T00:52:25;101932.31;;;5.77;100.00
65760;BME280;52496;51.082;5.066;2023-03-20T00:54:55;101932.31;;;5.77;100.00
65760;BME280;52496;51.082;5.066;2023-03-20T00:57:42;101924.38;;;5.77;100.00
65760;BME280;52496;51.082;5.066;2023-03-20T01:02:52;101944.50;;;5.80;100.00
65760;BME280;52496;51.082;5.066;2023-03-20T01:05:25;101952.59;;;5.78;100.00
65760;BME280;52496;51.082;5.066;2023-03-20T01:07:57;101961.53;;;5.77;100.00
65760;BME280;52496;51.082;5.066;2023-03-20T01:10:29;101961.78;;;5.74;100.00
65760;BME280;52496;51.082;5.066;2023-03-20T01:13:02;101964.69;;;5.71;100.00
65760;BME280;52496;51.082;5.066;2023-03-20T01:15:33;101946.34;;;5.68;100.00
65760;BME280;52496;51.082;5.066;2023-03-20T01:18:04;101930.09;;;5.61;100.00
65760;BME280;52496;51.082;5.066;2023-03-20T01:20:34;101921.66;;;5.56;100.00
65760;BME280;52496;51.082;5.066;2023-03-20T01:23:05;101921.78;;;5.55;100.00
65760;BME280;52496;51.082;5.066;2023-03-20T01:29:23;101930.84;;;5.52;100.00
65760;BME280;52496;51.082;5.066;2023-03-20T01:31:54;101908.06;;;5.49;100.00
65760;BME280;52496;51.082;5.066;2023-03-20T01:34:25;101900.34;;;5.46;100.00
65760;BME280;52496;51.082;5.066;2023-03-20T01:36:57;101910.13;;;5.46;100.00
65760;BME280;52496;51.082;5.066;2023-03-20T01:39:33;101917.25;;;5.45;100.00
65760;BME280;52496;51.082;5.066;2023-03-20T01:42:06;101917.25;;;5.45;100.00
65760;BME280;52496;51.082;5.066;2023-03-20T01:44:37;101922.41;;;5.47;100.00
65760;BME280;52496;51.082;5.066;2023-03-20T01:47:18;101914.59;;;5.45;100.00
65760;BME280;52496;51.082;5.066;2023-03-20T01:50:17;101905.91;;;5.43;100.00
65760;BME280;52496;51.082;5.066;2023-03-20T01:52:57;101885.19;;;5.37;100.00
65760;BME280;52496;51.082;5.066;2023-03-20T01:55:29;101891.72;;;5.33;100.00
65760;BME280;52496;51.082;5.066;2023-03-20T01:58:04;101889.56;;;5.27;100.00
65760;BME280;52496;51.082;5.066;2023-03-20T02:00:36;101904.25;;;5.20;100.00
65760;BME280;52496;51.082;5.066;2023-03-20T02:03:07;101904.25;;;5.20;100.00
65760;BME280;52496;51.082;5.066;2023-03-20T02:05:38;101915.59;;;5.22;100.00
65760;BME280;52496;51.082;5.066;2023-03-20T02:08:38;101923.44;;;5.23;100.00
65760;BME280;52496;51.082;5.066;2023-03-20T02:11:07;101930.41;;;5.24;100.00
65760;BME280;52496;51.082;5.066;2023-03-20T02:13:38;101934.63;;;5.27;100.00
65760;BME280;52496;51.082;5.066;2023-03-20T02:16:13;101939.69;;;5.30;100.00
65760;BME280;52496;51.082;5.066;2023-03-20T02:18:47;101945.59;;;5.34;100.00
65760;BME280;52496;51.082;5.066;2023-03-20T02:27:24;101942.28;;;5.52;100.00
65760;BME280;52496;51.082;5.066;2023-03-20T02:41:16;101925.69;;;5.83;100.00
65760;BME280;52496;51.082;5.066;2023-03-20T02:43:59;101915.53;;;5.88;100.00
65760;BME280;52496;51.082;5.066;2023-03-20T02:49:49;101914.78;;;5.97;100.00
65760;BME280;52496;51.082;5.066;2023-03-20T02:52:47;101898.59;;;6.00;100.00
65760;BME280;52496;51.082;5.066;2023-03-20T02:55:44;101890.25;;;6.05;100.00
65760;BME280;52496;51.082;5.066;2023-03-20T03:07:25;101905.03;;;6.18;100.00
65760;BME280;52496;51.082;5.066;2023-03-20T03:10:11;101901.13;;;6.23;100.00
65760;BME280;52496;51.082;5.066;2023-03-20T03:12:45;101879.75;;;6.24;100.00
65760;BME280;52496;51.082;5.066;2023-03-20T03:15:31;101882.25;;;6.26;100.00
65760;BME280;52496;51.082;5.066;2023-03-20T03:18:05;101882.00;;;6.29;100.00
65760;BME280;52496;51.082;5.066;2023-03-20T03:20:37;101880.19;;;6.29;100.00
65760;BME280;52496;51.082;5.066;2023-03-20T03:23:35;101876.69;;;6.29;100.00
65760;BME280;52496;51.082;5.066;2023-03-20T03:26:05;101867.03;;;6.28;100.00
65760;BME280;52496;51.082;5.066;2023-03-20T03:28:41;101871.63;;;6.26;100.00
65760;BME280;52496;51.082;5.066;2023-03-20T03:31:15;101890.38;;;6.24;100.00
65760;BME280;52496;51.082;5.066;2023-03-20T03:33:52;101885.34;;;6.21;100.00
65760;BME280;52496;51.082;5.066;2023-03-20T03:42:24;101886.13;;;6.12;100.00
65760;BME280;52496;51.082;5.066;2023-03-20T03:47:35;101894.34;;;6.09;100.00
65760;BME280;52496;51.082;5.066;2023-03-20T03:50:15;101900.59;;;6.08;100.00
65760;BME280;52496;51.082;5.066;2023-03-20T03:52:48;101897.94;;;6.08;100.00
65760;BME280;52496;51.082;5.066;2023-03-20T03:55:26;101886.38;;;6.09;100.00
65760;BME280;52496;51.082;5.066;2023-03-20T03:58:06;101875.75;;;6.09;100.00
65760;BME280;52496;51.082;5.066;2023-03-20T04:00:39;101872.38;;;6.07;100.00
65760;BME280;52496;51.082;5.066;2023-03-20T04:03:11;101865.38;;;6.06;100.00
65760;BME280;52496;51.082;5.066;2023-03-20T04:05:43;101867.31;;;6.04;100.00
65760;BME280;52496;51.082;5.066;2023-03-20T04:08:15;101866.59;;;6.02;100.00
65760;BME280;52496;51.082;5.066;2023-03-20T04:10:46;101870.34;;;5.99;100.00
65760;BME280;52496;51.082;5.066;2023-03-20T04:13:16;101875.66;;;5.99;100.00
65760;BME280;52496;51.082;5.066;2023-03-20T04:15:47;101874.81;;;5.98;100.00
65760;BME280;52496;51.082;5.066;2023-03-20T04:18:18;101877.47;;;5.98;100.00
65760;BME280;52496;51.082;5.066;2023-03-20T04:20:49;101873.16;;;5.97;100.00
65760;BME280;52496;51.082;5.066;2023-03-20T04:23:21;101874.13;;;5.96;100.00
65760;BME280;52496;51.082;5.066;2023-03-20T04:25:51;101878.47;;;5.97;100.00
65760;BME280;52496;51.082;5.066;2023-03-20T04:28:22;101870.50;;;5.97;100.00
65760;BME280;52496;51.082;5.066;2023-03-20T04:30:54;101867.94;;;5.96;100.00
65760;BME280;52496;51.082;5.066;2023-03-20T04:33:26;101872.31;;;5.97;100.00
65760;BME280;52496;51.082;5.066;2023-03-20T04:35:57;101878.47;;;5.97;100.00
65760;BME280;52496;51.082;5.066;2023-03-20T04:38:28;101876.63;;;5.98;100.00
65760;BME280;52496;51.082;5.066;2023-03-20T04:40:58;101880.13;;;5.98;100.00
65760;BME280;52496;51.082;5.066;2023-03-20T04:43:29;101864.09;;;6.00;100.00
65760;BME280;52496;51.082;5.066;2023-03-20T04:45:59;101864.91;;;6.01;100.00
65760;BME280;52496;51.082;5.066;2023-03-20T04:48:30;101863.94;;;6.02;100.00
65760;BME280;52496;51.082;5.066;2023-03-20T04:51:01;101863.94;;;6.02;100.00
65760;BME280;52496;51.082;5.066;2023-03-20T04:53:31;101859.47;;;6.02;100.00
65760;BME280;52496;51.082;5.066;2023-03-20T04:56:02;101860.34;;;6.03;100.00
65760;BME280;52496;51.082;5.066;2023-03-20T04:58:33;101861.16;;;6.03;100.00
65760;BME280;52496;51.082;5.066;2023-03-20T05:01:05;101852.38;;;6.03;100.00
65760;BME280;52496;51.082;5.066;2023-03-20T05:03:36;101850.53;;;6.03;100.00
65760;BME280;52496;51.082;5.066;2023-03-20T05:06:09;101847.75;;;6.05;100.00
65760;BME280;52496;51.082;5.066;2023-03-20T05:08:39;101851.38;;;6.04;100.00
65760;BME280;52496;51.082;5.066;2023-03-20T05:11:10;101850.41;;;6.05;100.00
65760;BME280;52496;51.082;5.066;2023-03-20T05:13:41;101853.06;;;6.05;100.00
65760;BME280;52496;51.082;5.066;2023-03-20T05:16:11;101844.97;;;6.06;100.00
65760;BME280;52496;51.082;5.066;2023-03-20T05:18:42;101847.63;;;6.06;100.00
65760;BME280;52496;51.082;5.066;2023-03-20T05:21:12;101844.00;;;6.07;100.00
65760;BME280;52496;51.082;5.066;2023-03-20T05:23:43;101847.47;;;6.08;100.00
65760;BME280;52496;51.082;5.066;2023-03-20T05:26:13;101850.88;;;6.10;100.00
65760;BME280;52496;51.082;5.066;2023-03-20T05:28:44;101849.19;;;6.09;100.00
65760;BME280;52496;51.082;5.066;2023-03-20T05:31:15;101847.22;;;6.11;100.00
65760;BME280;52496;51.082;5.066;2023-03-20T05:33:45;101851.69;;;6.10;100.00
65760;BME280;52496;51.082;5.066;2023-03-20T05:36:16;101857.00;;;6.10;100.00
65760;BME280;52496;51.082;5.066;2023-03-20T05:38:46;101857.72;;;6.12;100.00
65760;BME280;52496;51.082;5.066;2023-03-20T05:41:17;101865.56;;;6.14;100.00
65760;BME280;52496;51.082;5.066;2023-03-20T05:43:47;101867.25;;;6.15;100.00
65760;BME280;52496;51.082;5.066;2023-03-20T05:46:17;101859.28;;;6.15;100.00
65760;BME280;52496;51.082;5.066;2023-03-20T05:48:48;101860.13;;;6.15;100.00
65760;BME280;52496;51.082;5.066;2023-03-20T05:51:18;101853.84;;;6.16;100.00
65760;BME280;52496;51.082;5.066;2023-03-20T05:53:49;101843.09;;;6.18;100.00
65760;BME280;52496;51.082;5.066;2023-03-20T05:56:20;101858.88;;;6.19;100.00
65760;BME280;52496;51.082;5.066;2023-03-20T05:58:51;101849.94;;;6.20;100.00
65760;BME280;52496;51.082;5.066;2023-03-20T06:01:21;101847.16;;;6.22;100.00
65760;BME280;52496;51.082;5.066;2023-03-20T06:03:52;101840.88;;;6.23;100.00
65760;BME280;52496;51.082;5.066;2023-03-20T06:06:22;101840.59;;;6.26;100.00
65760;BME280;52496;51.082;5.066;2023-03-20T06:08:53;101854.59;;;6.28;100.00
65760;BME280;52496;51.082;5.066;2023-03-20T06:11:23;101847.34;;;6.30;100.00
65760;BME280;52496;51.082;5.066;2023-03-20T06:13:54;101849.88;;;6.32;100.00
65760;BME280;52496;51.082;5.066;2023-03-20T06:16:27;101860.38;;;6.33;100.00
65760;BME280;52496;51.082;5.066;2023-03-20T06:18:57;101857.44;;;6.36;100.00
65760;BME280;52496;51.082;5.066;2023-03-20T06:21:28;101866.13;;;6.38;100.00
65760;BME280;52496;51.082;5.066;2023-03-20T06:23:59;101874.81;;;6.40;100.00
65760;BME280;52496;51.082;5.066;2023-03-20T06:26:29;101882.63;;;6.42;100.00
65760;BME280;52496;51.082;5.066;2023-03-20T06:29:00;101871.88;;;6.43;100.00
65760;BME280;52496;51.082;5.066;2023-03-20T06:31:30;101878.59;;;6.48;100.00
65760;BME280;52496;51.082;5.066;2023-03-20T06:34:01;101877.50;;;6.50;100.00
65760;BME280;52496;51.082;5.066;2023-03-20T06:36:31;101870.97;;;6.54;100.00
65760;BME280;52496;51.082;5.066;2023-03-20T06:39:02;101881.91;;;6.61;100.00
65760;BME280;52496;51.082;5.066;2023-03-20T06:41:33;101875.34;;;6.65;100.00
65760;BME280;52496;51.082;5.066;2023-03-20T06:44:04;101879.41;;;6.69;100.00
65760;BME280;52496;51.082;5.066;2023-03-20T06:46:34;101885.06;;;6.76;100.00
65760;BME280;52496;51.082;5.066;2023-03-20T06:49:05;101878.06;;;6.84;100.00
65760;BME280;52496;51.082;5.066;2023-03-20T06:51:36;101884.28;;;6.95;100.00
65760;BME280;52496;51.082;5.066;2023-03-20T06:54:06;101886.13;;;7.04;100.00
65760;BME280;52496;51.082;5.066;2023-03-20T06:56:36;101886.97;;;7.14;100.00
65760;BME280;52496;51.082;5.066;2023-03-20T06:59:07;101883.50;;;7.23;100.00
65760;BME280;52496;51.082;5.066;2023-03-20T07:01:38;101890.66;;;7.32;100.00
65760;BME280;52496;51.082;5.066;2023-03-20T07:04:09;101890.81;;;7.41;100.00
65760;BME280;52496;51.082;5.066;2023-03-20T07:06:44;101892.09;;;7.46;100.00
65760;BME280;52496;51.082;5.066;2023-03-20T07:09:14;101902.31;;;7.51;100.00
65760;BME280;52496;51.082;5.066;2023-03-20T07:11:47;101899.53;;;7.52;100.00
65760;BME280;52496;51.082;5.066;2023-03-20T07:14:17;101900.34;;;7.53;100.00
65760;BME280;52496;51.082;5.066;2023-03-20T07:16:48;101899.63;;;7.51;100.00
65760;BME280;52496;51.082;5.066;2023-03-20T07:19:18;101904.00;;;7.52;100.00
65760;BME280;52496;51.082;5.066;2023-03-20T07:21:52;101916.31;;;7.53;100.00
65760;BME280;52496;51.082;5.066;2023-03-20T07:24:25;101905.69;;;7.53;100.00
65760;BME280;52496;51.082;5.066;2023-03-20T07:26:55;101917.88;;;7.55;100.00
65760;BME280;52496;51.082;5.066;2023-03-20T07:29:26;101927.25;;;7.59;100.00
65760;BME280;52496;51.082;5.066;2023-03-20T07:31:56;101918.88;;;7.64;100.00
65760;BME280;52496;51.082;5.066;2023-03-20T07:34:30;101923.50;;;7.72;100.00
65760;BME280;52496;51.082;5.066;2023-03-20T07:37:00;101928.13;;;7.79;100.00
65760;BME280;52496;51.082;5.066;2023-03-20T07:39:31;101927.28;;;7.89;100.00
65760;BME280;52496;51.082;5.066;2023-03-20T07:42:01;101932.88;;;7.95;100.00
65760;BME280;52496;51.082;5.066;2023-03-20T07:44:32;101931.63;;;7.99;100.00
65760;BME280;52496;51.082;5.066;2023-03-20T07:47:02;101934.00;;;8.02;100.00
65760;BME280;52496;51.082;5.066;2023-03-20T07:49:33;101936.25;;;8.07;100.00
65760;BME280;52496;51.082;5.066;2023-03-20T07:52:04;101928.66;;;8.12;100.00
65760;BME280;52496;51.082;5.066;2023-03-20T07:54:34;101935.69;;;8.13;100.00
65760;BME280;52496;51.082;5.066;2023-03-20T07:57:05;101933.72;;;8.15;100.00
65760;BME280;52496;51.082;5.066;2023-03-20T07:59:35;101929.78;;;8.19;100.00
65760;BME280;52496;51.082;5.066;2023-03-20T08:02:06;101937.63;;;8.21;100.00
65760;BME280;52496;51.082;5.066;2023-03-20T08:04:37;101943.50;;;8.24;100.00
65760;BME280;52496;51.082;5.066;2023-03-20T08:07:07;101940.44;;;8.29;100.00
65760;BME280;52496;51.082;5.066;2023-03-20T08:09:38;101949.53;;;8.36;100.00
65760;BME280;52496;51.082;5.066;2023-03-20T08:12:08;101945.63;;;8.50;100.00
65760;BME280;52496;51.082;5.066;2023-03-20T08:14:39;101947.72;;;8.56;100.00
65760;BME280;52496;51.082;5.066;2023-03-20T08:17:09;101939.25;;;8.61;100.00
65760;BME280;52496;51.082;5.066;2023-03-20T08:19:40;101942.06;;;8.69;100.00
65760;BME280;52496;51.082;5.066;2023-03-20T08:22:10;101944.84;;;8.77;100.00
65760;BME280;52496;51.082;5.066;2023-03-20T08:24:41;101951.81;;;8.88;100.00
65760;BME280;52496;51.082;5.066;2023-03-20T08:27:11;101958.56;;;8.92;100.00
65760;BME280;52496;51.082;5.066;2023-03-20T08:29:42;101956.72;;;8.92;100.00
65760;BME280;52496;51.082;5.066;2023-03-20T08:32:13;101951.22;;;8.94;100.00
65760;BME280;52496;51.082;5.066;2023-03-20T08:34:43;101950.94;;;8.97;100.00
65760;BME280;52496;51.082;5.066;2023-03-20T08:37:14;101955.16;;;9.00;100.00
65760;BME280;52496;51.082;5.066;2023-03-20T08:39:45;101954.00;;;9.02;100.00
65760;BME280;52496;51.082;5.066;2023-03-20T08:42:15;101949.97;;;8.98;100.00
65760;BME280;52496;51.082;5.066;2023-03-20T08:44:46;101952.63;;;8.98;100.00
65760;BME280;52496;51.082;5.066;2023-03-20T08:47:17;101957.81;;;9.00;100.00
65760;BME280;52496;51.082;5.066;2023-03-20T08:49:48;101953.31;;;9.00;100.00
65760;BME280;52496;51.082;5.066;2023-03-20T08:52:19;101953.72;;;9.05;100.00
65760;BME280;52496;51.082;5.066;2023-03-20T08:54:49;101948.09;;;9.08;100.00
65760;BME280;52496;51.082;5.066;2023-03-20T08:57:20;101943.59;;;9.09;100.00
65760;BME280;52496;51.082;5.066;2023-03-20T08:59:50;101952.44;;;9.09;100.00
65760;BME280;52496;51.082;5.066;2023-03-20T09:02:21;101958.75;;;9.08;100.00
65760;BME280;52496;51.082;5.066;2023-03-20T09:04:52;101958.91;;;9.07;100.00
65760;BME280;52496;51.082;5.066;2023-03-20T09:07:22;101957.69;;;9.01;100.00
65760;BME280;52496;51.082;5.066;2023-03-20T09:09:53;101960.22;;;8.93;100.00
65760;BME280;52496;51.082;5.066;2023-03-20T09:12:23;101968.13;;;8.85;100.00
65760;BME280;52496;51.082;5.066;2023-03-20T09:14:54;101969.81;;;8.76;100.00
65760;BME280;52496;51.082;5.066;2023-03-20T09:17:24;101974.22;;;8.67;100.00
65760;BME280;52496;51.082;5.066;2023-03-20T09:19:56;101972.81;;;8.63;100.00
65760;BME280;52496;51.082;5.066;2023-03-20T09:22:26;101977.75;;;8.58;100.00
65760;BME280;52496;51.082;5.066;2023-03-20T09:24:56;101983.38;;;8.55;100.00
65760;BME280;52496;51.082;5.066;2023-03-20T09:27:27;101981.41;;;8.47;100.00
65760;BME280;52496;51.082;5.066;2023-03-20T09:29:58;101974.09;;;8.40;100.00
65760;BME280;52496;51.082;5.066;2023-03-20T09:32:28;101982.25;;;8.38;100.00
65760;BME280;52496;51.082;5.066;2023-03-20T09:34:59;101984.78;;;8.40;100.00
65760;BME280;52496;51.082;5.066;2023-03-20T09:37:33;101997.13;;;8.41;100.00
65760;BME280;52496;51.082;5.066;2023-03-20T09:40:04;101985.47;;;8.42;100.00
65760;BME280;52496;51.082;5.066;2023-03-20T09:43:04;101983.53;;;8.44;100.00
65760;BME280;52496;51.082;5.066;2023-03-20T09:45:50;101981.53;;;8.46;100.00
65760;BME280;52496;51.082;5.066;2023-03-20T09:48:34;101966.94;;;8.50;100.00
65760;BME280;52496;51.082;5.066;2023-03-20T09:54:08;101968.34;;;8.54;100.00
65760;BME280;52496;51.082;5.066;2023-03-20T09:56:40;101972.41;;;8.58;100.00
65760;BME280;52496;51.082;5.066;2023-03-20T09:59:13;101970.13;;;8.63;100.00
65760;BME280;52496;51.082;5.066;2023-03-20T10:04:19;101977.41;;;8.81;100.00
65760;BME280;52496;51.082;5.066;2023-03-20T10:06:50;101976.00;;;8.86;100.00
65760;BME280;52496;51.082;5.066;2023-03-20T10:09:23;101974.28;;;8.95;100.00
65760;BME280;52496;51.082;5.066;2023-03-20T10:15:02;101965.41;;;9.32;100.00
65760;BME280;52496;51.082;5.066;2023-03-20T10:21:01;101961.31;;;9.55;100.00
65760;BME280;52496;51.082;5.066;2023-03-20T10:23:35;101953.69;;;9.60;100.00
65760;BME280;52496;51.082;5.066;2023-03-20T10:26:11;101949.59;;;9.66;100.00
65760;BME280;52496;51.082;5.066;2023-03-20T10:28:51;101942.41;;;9.67;100.00
65760;BME280;52496;51.082;5.066;2023-03-20T10:31:35;101940.34;;;9.78;100.00
65760;BME280;52496;51.082;5.066;2023-03-20T10:39:48;101916.75;;;10.09;100.00
65760;BME280;52496;51.082;5.066;2023-03-20T10:42:26;101918.88;;;10.24;100.00
65760;BME280;52496;51.082;5.066;2023-03-20T10:45:07;101911.59;;;10.34;100.00
65760;BME280;52496;51.082;5.066;2023-03-20T10:47:46;101915.56;;;10.48;100.00
65760;BME280;52496;51.082;5.066;2023-03-20T10:50:43;101916.38;;;10.48;100.00
65760;BME280;52496;51.082;5.066;2023-03-20T10:53:48;101918.38;;;10.46;100.00
65760;BME280;52496;51.082;5.066;2023-03-20T10:59:04;101896.03;;;10.55;100.00
65760;BME280;52496;51.082;5.066;2023-03-20T11:01:36;101895.75;;;10.67;100.00
65760;BME280;52496;51.082;5.066;2023-03-20T11:04:06;101892.31;;;10.74;100.00
65760;BME280;52496;51.082;5.066;2023-03-20T11:06:55;101879.31;;;10.88;100.00
65760;BME280;52496;51.082;5.066;2023-03-20T11:09:30;101884.56;;;11.06;100.00
65760;BME280;52496;51.082;5.066;2023-03-20T11:12:03;101892.31;;;11.17;100.00
65760;BME280;52496;51.082;5.066;2023-03-20T11:14:38;101888.78;;;11.16;100.00
65760;BME280;52496;51.082;5.066;2023-03-20T11:17:09;101892.97;;;11.19;100.00
65760;BME280;52496;51.082;5.066;2023-03-20T11:19:41;101897.31;;;11.12;100.00
65760;BME280;52496;51.082;5.066;2023-03-20T11:24:53;101892.63;;;11.14;100.00
65760;BME280;52496;51.082;5.066;2023-03-20T11:27:26;101889.97;;;11.22;100.00
65760;BME280;52496;51.082;5.066;2023-03-20T11:29:59;101887.78;;;11.25;100.00
65760;BME280;52496;51.082;5.066;2023-03-20T11:37:51;101876.63;;;11.38;100.00
65760;BME280;52496;51.082;5.066;2023-03-20T11:43:02;101877.31;;;11.48;100.00
65760;BME280;52496;51.082;5.066;2023-03-20T11:45:38;101873.78;;;11.56;100.00
65760;BME280;52496;51.082;5.066;2023-03-20T11:48:18;101871.31;;;11.63;100.00
65760;BME280;52496;51.082;5.066;2023-03-20T11:51:02;101878.00;;;11.75;100.00
65760;BME280;52496;51.082;5.066;2023-03-20T11:53:56;101872.31;;;11.78;99.86
65760;BME280;52496;51.082;5.066;2023-03-20T11:56:31;101866.44;;;11.75;100.00
65760;BME280;52496;51.082;5.066;2023-03-20T11:59:12;101867.63;;;11.72;99.63
65760;BME280;52496;51.082;5.066;2023-03-20T12:01:47;101865.59;;;11.74;99.09
65760;BME280;52496;51.082;5.066;2023-03-20T12:04:30;101861.59;;;11.78;96.10
65760;BME280;52496;51.082;5.066;2023-03-20T12:09:45;101853.03;;;11.83;97.22
65760;BME280;52496;51.082;5.066;2023-03-20T12:12:31;101849.72;;;11.89;98.56
65760;BME280;52496;51.082;5.066;2023-03-20T12:20:45;101844.03;;;12.00;92.65
65760;BME280;52496;51.082;5.066;2023-03-20T12:23:55;101842.84;;;12.03;92.50
65760;BME280;52496;51.082;5.066;2023-03-20T12:29:50;101831.13;;;12.12;90.24
65760;BME280;52496;51.082;5.066;2023-03-20T12:32:30;101833.25;;;12.16;90.22
65760;BME280;52496;51.082;5.066;2023-03-20T12:35:16;101829.75;;;12.24;93.20
65760;BME280;52496;51.082;5.066;2023-03-20T12:37:49;101831.69;;;12.38;93.67
65760;BME280;52496;51.082;5.066;2023-03-20T12:40:27;101829.19;;;12.45;91.27
65760;BME280;52496;51.082;5.066;2023-03-20T12:43:13;101816.13;;;12.42;88.87
65760;BME280;52496;51.082;5.066;2023-03-20T12:46:23;101818.97;;;12.40;87.92
65760;BME280;52496;51.082;5.066;2023-03-20T12:49:08;101817.78;;;12.35;88.07
65760;BME280;52496;51.082;5.066;2023-03-20T12:51:43;101806.56;;;12.39;87.29
65760;BME280;52496;51.082;5.066;2023-03-20T12:57:10;101805.84;;;12.54;86.54
65760;BME280;52496;51.082;5.066;2023-03-20T13:00:25;101800.78;;;12.59;87.70
65760;BME280;52496;51.082;5.066;2023-03-20T13:03:10;101800.75;;;12.67;86.16
65760;BME280;52496;51.082;5.066;2023-03-20T13:11:30;101792.94;;;12.89;85.19
65760;BME280;52496;51.082;5.066;2023-03-20T13:14:34;101784.53;;;12.92;85.95
65760;BME280;52496;51.082;5.066;2023-03-20T13:20:30;101796.28;;;12.91;85.24
65760;BME280;52496;51.082;5.066;2023-03-20T13:23:25;101790.72;;;12.92;83.90
65760;BME280;52496;51.082;5.066;2023-03-20T13:26:30;101792.03;;;12.96;83.14
65760;BME280;52496;51.082;5.066;2023-03-20T13:35:12;101789.38;;;13.19;83.01
65760;BME280;52496;51.082;5.066;2023-03-20T13:37:55;101784.00;;;13.27;79.18
65760;BME280;52496;51.082;5.066;2023-03-20T13:40:28;101782.25;;;13.35;81.31
65760;BME280;52496;51.082;5.066;2023-03-20T13:46:33;101790.31;;;13.35;79.02
65760;BME280;52496;51.082;5.066;2023-03-20T13:49:13;101779.94;;;13.23;77.57
65760;BME280;52496;51.082;5.066;2023-03-20T13:51:55;101781.25;;;13.04;77.76
65760;BME280;52496;51.082;5.066;2023-03-20T14:00:37;101779.06;;;12.77;79.92
65760;BME280;52496;51.082;5.066;2023-03-20T14:05:53;101776.47;;;12.60;79.67
65760;BME280;52496;51.082;5.066;2023-03-20T14:13:48;101767.28;;;12.47;84.74
65760;BME280;52496;51.082;5.066;2023-03-20T14:16:20;101754.22;;;12.44;84.60
65760;BME280;52496;51.082;5.066;2023-03-20T14:19:07;101762.94;;;12.46;86.95
65760;BME280;52496;51.082;5.066;2023-03-20T14:21:38;101751.72;;;12.42;88.09
65760;BME280;52496;51.082;5.066;2023-03-20T14:24:13;101750.56;;;12.45;86.18
65760;BME280;52496;51.082;5.066;2023-03-20T14:26:48;101756.75;;;12.45;87.88
65760;BME280;52496;51.082;5.066;2023-03-20T14:34:50;101758.97;;;12.33;87.79
65760;BME280;52496;51.082;5.066;2023-03-20T14:37:44;101760.00;;;12.24;85.22
65760;BME280;52496;51.082;5.066;2023-03-20T14:40:27;101749.66;;;12.13;85.65
65760;BME280;52496;51.082;5.066;2023-03-20T14:43:03;101746.28;;;12.11;86.03
65760;BME280;52496;51.082;5.066;2023-03-20T14:45:44;101735.56;;;12.11;86.29
65760;BME280;52496;51.082;5.066;2023-03-20T14:48:24;101744.28;;;12.13;85.94
65760;BME280;52496;51.082;5.066;2023-03-20T14:56:51;101737.88;;;12.30;87.84
65760;BME280;52496;51.082;5.066;2023-03-20T14:59:23;101739.66;;;12.38;85.90
65760;BME280;52496;51.082;5.066;2023-03-20T15:01:58;101733.13;;;12.40;86.33
65760;BME280;52496;51.082;5.066;2023-03-20T15:04:33;101732.59;;;12.45;86.75
65760;BME280;52496;51.082;5.066;2023-03-20T15:07:23;101724.38;;;12.47;86.60
65760;BME280;52496;51.082;5.066;2023-03-20T15:09:57;101737.78;;;12.47;85.68
65760;BME280;52496;51.082;5.066;2023-03-20T15:12:33;101728.06;;;12.46;87.85
65760;BME280;52496;51.082;5.066;2023-03-20T15:15:06;101725.38;;;12.46;86.15
65760;BME280;52496;51.082;5.066;2023-03-20T15:17:43;101732.97;;;12.42;86.56
65760;BME280;52496;51.082;5.066;2023-03-20T15:20:24;101726.09;;;12.39;86.99
65760;BME280;52496;51.082;5.066;2023-03-20T15:22:58;101718.69;;;12.42;89.87
65760;BME280;52496;51.082;5.066;2023-03-20T15:25:37;101714.00;;;12.44;88.56
65760;BME280;52496;51.082;5.066;2023-03-20T15:28:31;101719.91;;;12.39;87.96
65760;BME280;52496;51.082;5.066;2023-03-20T15:31:02;101719.38;;;12.35;88.53
65760;BME280;52496;51.082;5.066;2023-03-20T15:33:36;101719.72;;;12.32;89.27
65760;BME280;52496;51.082;5.066;2023-03-20T15:36:19;101714.06;;;12.27;89.25
65760;BME280;52496;51.082;5.066;2023-03-20T15:38:50;101709.88;;;12.25;89.30
65760;BME280;52496;51.082;5.066;2023-03-20T15:41:32;101710.25;;;12.22;89.58
65760;BME280;52496;51.082;5.066;2023-03-20T15:46:52;101707.78;;;12.12;91.95
65760;BME280;52496;51.082;5.066;2023-03-20T15:49:24;101702.41;;;12.12;93.91
65760;BME280;52496;51.082;5.066;2023-03-20T15:51:58;101703.09;;;12.06;94.63